sensor_id;sensor_type;location;lat;lon;timestamp;P1;durP1;ratioP1;P2;durP2;ratioP2
74935;SDS011;63501;55.570;37.488;2023-05-07T00:01:13;3.80;;;1.85;;
74935;SDS011;63501;55.570;37.488;2023-05-07T00:03:40;3.63;;;1.52;;
74935;SDS011;63501;55.570;37.488;2023-05-07T00:06:07;3.08;;;1.80;;
74935;SDS011;63501;55.570;37.488;2023-05-07T00:08:35;4.22;;;1.80;;
74935;SDS011;63501;55.570;37.488;2023-05-07T00:11:02;3.85;;;1.80;;
74935;SDS011;63501;55.570;37.488;2023-05-07T00:13:31;3.28;;;1.73;;
74935;SDS011;63501;55.570;37.488;2023-05-07T00:16:00;5.05;;;2.03;;
74935;SDS011;63501;55.570;37.488;2023-05-07T00:18:27;3.90;;;1.73;;
74935;SDS011;63501;55.570;37.488;2023-05-07T00:20:54;3.20;;;1.83;;
74935;SDS011;63501;55.570;37.488;2023-05-07T00:23:22;2.90;;;1.73;;
74935;SDS011;63501;55.570;37.488;2023-05-07T00:25:49;2.65;;;1.63;;
74935;SDS011;63501;55.570;37.488;2023-05-07T00:28:16;4.63;;;1.90;;
74935;SDS011;63501;55.570;37.488;2023-05-07T00:30:45;4.05;;;1.52;;
74935;SDS011;63501;55.570;37.488;2023-05-07T00:33:12;2.92;;;1.58;;
74935;SDS011;63501;55.570;37.488;2023-05-07T00:35:39;4.28;;;1.77;;
74935;SDS011;63501;55.570;37.488;2023-05-07T00:38:06;5.13;;;2.53;;
74935;SDS011;63501;55.570;37.488;2023-05-07T00:40:33;2.83;;;1.85;;
74935;SDS011;63501;55.570;37.488;2023-05-07T00:43:00;4.30;;;1.92;;
74935;SDS011;63501;55.570;37.488;2023-05-07T00:45:27;3.03;;;1.50;;
74935;SDS011;63501;55.570;37.488;2023-05-07T00:47:57;2.17;;;1.50;;
74935;SDS011;63501;55.570;37.488;2023-05-07T00:50:25;3.75;;;1.90;;
74935;SDS011;63501;55.570;37.488;2023-05-07T00:52:53;3.20;;;1.70;;
74935;SDS011;63501;55.570;37.488;2023-05-07T00:55:22;3.25;;;1.45;;
74935;SDS011;63501;55.570;37.488;2023-05-07T00:57:50;2.95;;;1.75;;
74935;SDS011;63501;55.570;37.488;2023-05-07T01:00:17;3.05;;;1.80;;
74935;SDS011;63501;55.570;37.488;2023-05-07T01:02:45;3.30;;;1.70;;
74935;SDS011;63501;55.570;37.488;2023-05-07T01:05:14;3.00;;;1.77;;
74935;SDS011;63501;55.570;37.488;2023-05-07T01:07:43;3.47;;;1.83;;
74935;SDS011;63501;55.570;37.488;2023-05-07T01:10:11;3.10;;;1.58;;
74935;SDS011;63501;55.570;37.488;2023-05-07T01:12:38;3.03;;;1.80;;
74935;SDS011;63501;55.570;37.488;2023-05-07T01:15:08;2.13;;;1.60;;
74935;SDS011;63501;55.570;37.488;2023-05-07T01:17:37;6.68;;;2.28;;
74935;SDS011;63501;55.570;37.488;2023-05-07T01:20:06;2.75;;;1.50;;
74935;SDS011;63501;55.570;37.488;2023-05-07T01:22:36;2.55;;;1.67;;
74935;SDS011;63501;55.570;37.488;2023-05-07T01:25:05;3.85;;;1.80;;
74935;SDS011;63501;55.570;37.488;2023-05-07T01:30:00;3.30;;;2.03;;
74935;SDS011;63501;55.570;37.488;2023-05-07T01:32:31;2.13;;;1.60;;
74935;SDS011;63501;55.570;37.488;2023-05-07T01:35:02;3.00;;;1.50;;
74935;SDS011;63501;55.570;37.488;2023-05-07T01:37:32;3.67;;;1.80;;
74935;SDS011;63501;55.570;37.488;2023-05-07T01:40:01;2.97;;;1.67;;
74935;SDS011;63501;55.570;37.488;2023-05-07T01:42:29;3.83;;;1.77;;
74935;SDS011;63501;55.570;37.488;2023-05-07T01:47:46;2.20;;;1.80;;
74935;SDS011;63501;55.570;37.488;2023-05-07T01:50:14;4.40;;;1.70;;
74935;SDS011;63501;55.570;37.488;2023-05-07T01:52:44;3.72;;;1.88;;
74935;SDS011;63501;55.570;37.488;2023-05-07T01:55:13;5.22;;;1.88;;
74935;SDS011;63501;55.570;37.488;2023-05-07T01:57:40;2.65;;;1.60;;
74935;SDS011;63501;55.570;37.488;2023-05-07T02:00:07;4.68;;;1.77;;
74935;SDS011;63501;55.570;37.488;2023-05-07T02:02:35;6.00;;;1.52;;
74935;SDS011;63501;55.570;37.488;2023-05-07T02:05:03;2.55;;;1.50;;
74935;SDS011;63501;55.570;37.488;2023-05-07T02:07:31;4.97;;;1.88;;
74935;SDS011;63501;55.570;37.488;2023-05-07T02:09:58;6.82;;;1.60;;
74935;SDS011;63501;55.570;37.488;2023-05-07T02:12:26;4.05;;;2.25;;
74935;SDS011;63501;55.570;37.488;2023-05-07T02:14:53;5.97;;;1.92;;
74935;SDS011;63501;55.570;37.488;2023-05-07T02:17:20;4.50;;;1.90;;
74935;SDS011;63501;55.570;37.488;2023-05-07T02:19:47;3.60;;;2.00;;
74935;SDS011;63501;55.570;37.488;2023-05-07T02:25:01;3.28;;;2.03;;
74935;SDS011;63501;55.570;37.488;2023-05-07T02:27:29;3.92;;;2.17;;
74935;SDS011;63501;55.570;37.488;2023-05-07T02:29:56;7.15;;;2.50;;
74935;SDS011;63501;55.570;37.488;2023-05-07T02:32:23;4.70;;;1.70;;
74935;SDS011;63501;55.570;37.488;2023-05-07T02:34:50;2.88;;;1.88;;
74935;SDS011;63501;55.570;37.488;2023-05-07T02:37:18;6.90;;;2.03;;
74935;SDS011;63501;55.570;37.488;2023-05-07T02:39:45;4.30;;;2.47;;
74935;SDS011;63501;55.570;37.488;2023-05-07T02:42:12;3.45;;;1.58;;
74935;SDS011;63501;55.570;37.488;2023-05-07T02:44:40;2.63;;;1.90;;
74935;SDS011;63501;55.570;37.488;2023-05-07T02:47:07;4.35;;;2.30;;
74935;SDS011;63501;55.570;37.488;2023-05-07T02:49:35;3.83;;;2.20;;
74935;SDS011;63501;55.570;37.488;2023-05-07T02:52:02;4.05;;;1.60;;
74935;SDS011;63501;55.570;37.488;2023-05-07T02:54:29;3.92;;;2.00;;
74935;SDS011;63501;55.570;37.488;2023-05-07T02:56:56;7.28;;;2.03;;
74935;SDS011;63501;55.570;37.488;2023-05-07T02:59:23;3.30;;;1.92;;
74935;SDS011;63501;55.570;37.488;2023-05-07T03:01:52;4.55;;;1.83;;
74935;SDS011;63501;55.570;37.488;2023-05-07T03:04:19;4.32;;;1.85;;
74935;SDS011;63501;55.570;37.488;2023-05-07T03:06:46;3.03;;;1.85;;
74935;SDS011;63501;55.570;37.488;2023-05-07T03:09:13;3.38;;;2.00;;
74935;SDS011;63501;55.570;37.488;2023-05-07T03:11:41;4.20;;;1.85;;
74935;SDS011;63501;55.570;37.488;2023-05-07T03:14:08;3.83;;;2.17;;
74935;SDS011;63501;55.570;37.488;2023-05-07T03:16:35;4.57;;;1.77;;
74935;SDS011;63501;55.570;37.488;2023-05-07T03:19:04;6.85;;;2.25;;
74935;SDS011;63501;55.570;37.488;2023-05-07T03:21:31;3.92;;;2.03;;
74935;SDS011;63501;55.570;37.488;2023-05-07T03:23:59;3.10;;;1.75;;
74935;SDS011;63501;55.570;37.488;2023-05-07T03:26:26;4.30;;;2.03;;
74935;SDS011;63501;55.570;37.488;2023-05-07T03:28:53;3.92;;;1.60;;
74935;SDS011;63501;55.570;37.488;2023-05-07T03:31:20;5.47;;;2.40;;
74935;SDS011;63501;55.570;37.488;2023-05-07T03:33:50;3.92;;;1.95;;
74935;SDS011;63501;55.570;37.488;2023-05-07T03:36:19;4.35;;;2.00;;
74935;SDS011;63501;55.570;37.488;2023-05-07T03:38:48;2.58;;;1.73;;
74935;SDS011;63501;55.570;37.488;2023-05-07T03:41:15;3.85;;;2.00;;
74935;SDS011;63501;55.570;37.488;2023-05-07T03:43:42;3.72;;;1.85;;
74935;SDS011;63501;55.570;37.488;2023-05-07T03:46:09;3.90;;;1.90;;
74935;SDS011;63501;55.570;37.488;2023-05-07T03:48:36;4.28;;;2.13;;
74935;SDS011;63501;55.570;37.488;2023-05-07T03:51:04;3.15;;;1.45;;
74935;SDS011;63501;55.570;37.488;2023-05-07T03:53:32;4.95;;;2.28;;
74935;SDS011;63501;55.570;37.488;2023-05-07T03:58:26;3.38;;;1.90;;
74935;SDS011;63501;55.570;37.488;2023-05-07T04:00:53;3.20;;;1.70;;
74935;SDS011;63501;55.570;37.488;2023-05-07T04:03:20;3.90;;;2.10;;
74935;SDS011;63501;55.570;37.488;2023-05-07T04:05:47;4.35;;;1.58;;
74935;SDS011;63501;55.570;37.488;2023-05-07T04:08:14;3.50;;;1.73;;
74935;SDS011;63501;55.570;37.488;2023-05-07T04:10:42;4.97;;;1.85;;
74935;SDS011;63501;55.570;37.488;2023-05-07T04:15:36;3.33;;;1.80;;
74935;SDS011;63501;55.570;37.488;2023-05-07T04:18:03;4.18;;;2.17;;
74935;SDS011;63501;55.570;37.488;2023-05-07T04:20:30;3.13;;;1.90;;
74935;SDS011;63501;55.570;37.488;2023-05-07T04:23:01;2.08;;;1.58;;
74935;SDS011;63501;55.570;37.488;2023-05-07T04:25:28;2.97;;;1.65;;
74935;SDS011;63501;55.570;37.488;2023-05-07T04:27:57;4.03;;;1.70;;
74935;SDS011;63501;55.570;37.488;2023-05-07T04:32:51;2.10;;;1.45;;
74935;SDS011;63501;55.570;37.488;2023-05-07T04:35:18;2.15;;;1.50;;
74935;SDS011;63501;55.570;37.488;2023-05-07T04:37:45;3.05;;;1.55;;
74935;SDS011;63501;55.570;37.488;2023-05-07T04:40:12;3.42;;;1.80;;
74935;SDS011;63501;55.570;37.488;2023-05-07T04:42:40;5.55;;;1.90;;
74935;SDS011;63501;55.570;37.488;2023-05-07T04:45:08;3.10;;;1.55;;
74935;SDS011;63501;55.570;37.488;2023-05-07T04:47:37;4.63;;;1.73;;
74935;SDS011;63501;55.570;37.488;2023-05-07T04:50:05;1.95;;;1.20;;
74935;SDS011;63501;55.570;37.488;2023-05-07T04:52:33;2.38;;;1.33;;
74935;SDS011;63501;55.570;37.488;2023-05-07T04:55:00;4.28;;;1.45;;
74935;SDS011;63501;55.570;37.488;2023-05-07T04:57:28;4.50;;;2.13;;
74935;SDS011;63501;55.570;37.488;2023-05-07T04:59:55;3.20;;;1.45;;
74935;SDS011;63501;55.570;37.488;2023-05-07T05:02:23;2.70;;;1.30;;
74935;SDS011;63501;55.570;37.488;2023-05-07T05:07:17;3.40;;;1.33;;
74935;SDS011;63501;55.570;37.488;2023-05-07T05:09:44;2.50;;;1.27;;
74935;SDS011;63501;55.570;37.488;2023-05-07T05:12:11;1.95;;;1.20;;
74935;SDS011;63501;55.570;37.488;2023-05-07T05:14:38;2.40;;;1.42;;
74935;SDS011;63501;55.570;37.488;2023-05-07T05:17:05;1.95;;;1.15;;
74935;SDS011;63501;55.570;37.488;2023-05-07T05:19:33;1.80;;;1.02;;
74935;SDS011;63501;55.570;37.488;2023-05-07T05:22:00;2.75;;;1.23;;
74935;SDS011;63501;55.570;37.488;2023-05-07T05:24:29;1.83;;;1.10;;
74935;SDS011;63501;55.570;37.488;2023-05-07T05:26:58;3.20;;;1.38;;
74935;SDS011;63501;55.570;37.488;2023-05-07T05:29:26;2.42;;;1.20;;
74935;SDS011;63501;55.570;37.488;2023-05-07T05:31:53;2.17;;;1.17;;
74935;SDS011;63501;55.570;37.488;2023-05-07T05:34:20;2.60;;;1.00;;
74935;SDS011;63501;55.570;37.488;2023-05-07T05:36:49;3.03;;;1.20;;
74935;SDS011;63501;55.570;37.488;2023-05-07T05:39:16;1.60;;;0.82;;
74935;SDS011;63501;55.570;37.488;2023-05-07T05:41:44;1.38;;;0.95;;
74935;SDS011;63501;55.570;37.488;2023-05-07T05:44:11;2.25;;;1.10;;
74935;SDS011;63501;55.570;37.488;2023-05-07T05:46:38;1.95;;;1.10;;
74935;SDS011;63501;55.570;37.488;2023-05-07T05:49:05;2.58;;;0.95;;
74935;SDS011;63501;55.570;37.488;2023-05-07T05:51:32;1.45;;;1.15;;
74935;SDS011;63501;55.570;37.488;2023-05-07T05:54:01;2.03;;;1.13;;
74935;SDS011;63501;55.570;37.488;2023-05-07T05:56:29;1.73;;;0.98;;
74935;SDS011;63501;55.570;37.488;2023-05-07T05:58:56;1.70;;;1.00;;
74935;SDS011;63501;55.570;37.488;2023-05-07T06:01:23;2.17;;;1.10;;
74935;SDS011;63501;55.570;37.488;2023-05-07T06:03:51;1.20;;;1.00;;
74935;SDS011;63501;55.570;37.488;2023-05-07T06:06:18;1.65;;;0.90;;
74935;SDS011;63501;55.570;37.488;2023-05-07T06:08:45;1.13;;;0.73;;
74935;SDS011;63501;55.570;37.488;2023-05-07T06:11:14;3.65;;;1.05;;
74935;SDS011;63501;55.570;37.488;2023-05-07T06:13:41;1.23;;;0.90;;
74935;SDS011;63501;55.570;37.488;2023-05-07T06:16:08;1.33;;;0.90;;
74935;SDS011;63501;55.570;37.488;2023-05-07T06:18:35;3.90;;;1.23;;
74935;SDS011;63501;55.570;37.488;2023-05-07T06:21:02;1.55;;;0.95;;
74935;SDS011;63501;55.570;37.488;2023-05-07T06:23:29;1.42;;;0.90;;
74935;SDS011;63501;55.570;37.488;2023-05-07T06:25:56;2.90;;;1.00;;
74935;SDS011;63501;55.570;37.488;2023-05-07T06:28:24;1.20;;;0.73;;
74935;SDS011;63501;55.570;37.488;2023-05-07T06:30:52;1.30;;;0.80;;
74935;SDS011;63501;55.570;37.488;2023-05-07T06:33:19;1.30;;;0.90;;
74935;SDS011;63501;55.570;37.488;2023-05-07T06:35:46;1.48;;;1.00;;
74935;SDS011;63501;55.570;37.488;2023-05-07T06:38:13;2.25;;;1.08;;
74935;SDS011;63501;55.570;37.488;2023-05-07T06:40:41;2.33;;;1.30;;
74935;SDS011;63501;55.570;37.488;2023-05-07T06:43:08;2.25;;;1.05;;
74935;SDS011;63501;55.570;37.488;2023-05-07T06:45:36;1.55;;;0.80;;
74935;SDS011;63501;55.570;37.488;2023-05-07T06:48:04;1.58;;;1.25;;
74935;SDS011;63501;55.570;37.488;2023-05-07T06:50:31;2.05;;;1.23;;
74935;SDS011;63501;55.570;37.488;2023-05-07T06:52:58;3.42;;;1.10;;
74935;SDS011;63501;55.570;37.488;2023-05-07T06:55:25;2.42;;;1.02;;
74935;SDS011;63501;55.570;37.488;2023-05-07T06:57:52;1.05;;;0.88;;
74935;SDS011;63501;55.570;37.488;2023-05-07T07:00:19;1.95;;;1.20;;
74935;SDS011;63501;55.570;37.488;2023-05-07T07:02:48;1.48;;;0.98;;
74935;SDS011;63501;55.570;37.488;2023-05-07T07:05:15;2.88;;;1.20;;
74935;SDS011;63501;55.570;37.488;2023-05-07T07:07:42;3.13;;;1.00;;
74935;SDS011;63501;55.570;37.488;2023-05-07T07:10:09;1.50;;;1.00;;
74935;SDS011;63501;55.570;37.488;2023-05-07T07:12:36;1.55;;;1.02;;
74935;SDS011;63501;55.570;37.488;2023-05-07T07:15:04;1.67;;;1.20;;
74935;SDS011;63501;55.570;37.488;2023-05-07T07:20:00;1.23;;;0.90;;
74935;SDS011;63501;55.570;37.488;2023-05-07T07:22:29;3.45;;;0.93;;
74935;SDS011;63501;55.570;37.488;2023-05-07T07:24:56;2.03;;;0.80;;
74935;SDS011;63501;55.570;37.488;2023-05-07T07:27:23;1.10;;;0.80;;
74935;SDS011;63501;55.570;37.488;2023-05-07T07:29:50;2.78;;;0.93;;
74935;SDS011;63501;55.570;37.488;2023-05-07T07:32:17;1.08;;;0.90;;
74935;SDS011;63501;55.570;37.488;2023-05-07T07:34:44;2.63;;;1.10;;
74935;SDS011;63501;55.570;37.488;2023-05-07T07:37:14;1.73;;;1.10;;
74935;SDS011;63501;55.570;37.488;2023-05-07T07:39:41;3.33;;;1.08;;
74935;SDS011;63501;55.570;37.488;2023-05-07T07:42:08;1.55;;;0.95;;
74935;SDS011;63501;55.570;37.488;2023-05-07T07:44:35;4.63;;;0.95;;
74935;SDS011;63501;55.570;37.488;2023-05-07T07:47:02;0.80;;;0.68;;
74935;SDS011;63501;55.570;37.488;2023-05-07T07:49:29;1.73;;;0.95;;
74935;SDS011;63501;55.570;37.488;2023-05-07T07:51:56;3.60;;;1.00;;
74935;SDS011;63501;55.570;37.488;2023-05-07T07:54:26;2.30;;;0.80;;
74935;SDS011;63501;55.570;37.488;2023-05-07T07:56:53;3.80;;;1.20;;
74935;SDS011;63501;55.570;37.488;2023-05-07T07:59:20;2.45;;;1.30;;
74935;SDS011;63501;55.570;37.488;2023-05-07T08:01:48;2.88;;;1.25;;
74935;SDS011;63501;55.570;37.488;2023-05-07T08:06:45;2.13;;;1.10;;
74935;SDS011;63501;55.570;37.488;2023-05-07T08:09:12;2.15;;;1.20;;
74935;SDS011;63501;55.570;37.488;2023-05-07T08:11:40;1.88;;;1.27;;
74935;SDS011;63501;55.570;37.488;2023-05-07T08:14:07;4.15;;;1.15;;
74935;SDS011;63501;55.570;37.488;2023-05-07T08:16:34;2.28;;;0.93;;
74935;SDS011;63501;55.570;37.488;2023-05-07T08:19:01;3.22;;;1.40;;
74935;SDS011;63501;55.570;37.488;2023-05-07T08:21:29;2.65;;;0.88;;
74935;SDS011;63501;55.570;37.488;2023-05-07T08:23:56;1.60;;;1.05;;
74935;SDS011;63501;55.570;37.488;2023-05-07T08:26:23;4.20;;;1.85;;
74935;SDS011;63501;55.570;37.488;2023-05-07T08:28:51;2.90;;;1.10;;
74935;SDS011;63501;55.570;37.488;2023-05-07T08:31:18;3.20;;;1.10;;
74935;SDS011;63501;55.570;37.488;2023-05-07T08:33:45;1.10;;;0.90;;
74935;SDS011;63501;55.570;37.488;2023-05-07T08:36:12;2.00;;;1.20;;
74935;SDS011;63501;55.570;37.488;2023-05-07T08:38:39;2.08;;;1.10;;
74935;SDS011;63501;55.570;37.488;2023-05-07T08:41:09;1.73;;;1.00;;
74935;SDS011;63501;55.570;37.488;2023-05-07T08:43:36;1.25;;;0.80;;
74935;SDS011;63501;55.570;37.488;2023-05-07T08:46:09;1.00;;;0.80;;
74935;SDS011;63501;55.570;37.488;2023-05-07T08:48:36;1.35;;;1.20;;
74935;SDS011;63501;55.570;37.488;2023-05-07T08:51:04;1.20;;;0.80;;
74935;SDS011;63501;55.570;37.488;2023-05-07T08:53:32;1.90;;;1.08;;
74935;SDS011;63501;55.570;37.488;2023-05-07T08:56:00;2.50;;;0.88;;
74935;SDS011;63501;55.570;37.488;2023-05-07T08:58:27;2.70;;;1.63;;
74935;SDS011;63501;55.570;37.488;2023-05-07T09:00:54;1.42;;;0.90;;
74935;SDS011;63501;55.570;37.488;2023-05-07T09:03:23;2.47;;;1.20;;
74935;SDS011;63501;55.570;37.488;2023-05-07T09:05:50;3.05;;;1.10;;
74935;SDS011;63501;55.570;37.488;2023-05-07T09:08:17;2.85;;;0.95;;
74935;SDS011;63501;55.570;37.488;2023-05-07T09:10:44;1.52;;;0.90;;
74935;SDS011;63501;55.570;37.488;2023-05-07T09:13:11;2.03;;;1.10;;
74935;SDS011;63501;55.570;37.488;2023-05-07T09:15:39;1.60;;;0.90;;
74935;SDS011;63501;55.570;37.488;2023-05-07T09:18:06;1.83;;;1.08;;
74935;SDS011;63501;55.570;37.488;2023-05-07T09:20:35;3.60;;;1.30;;
74935;SDS011;63501;55.570;37.488;2023-05-07T09:23:03;3.70;;;1.77;;
74935;SDS011;63501;55.570;37.488;2023-05-07T09:25:30;8.32;;;3.17;;
74935;SDS011;63501;55.570;37.488;2023-05-07T09:30:27;3.13;;;1.10;;
74935;SDS011;63501;55.570;37.488;2023-05-07T09:32:55;2.15;;;0.90;;
74935;SDS011;63501;55.570;37.488;2023-05-07T09:35:22;1.38;;;1.27;;
74935;SDS011;63501;55.570;37.488;2023-05-07T09:37:53;3.78;;;1.10;;
74935;SDS011;63501;55.570;37.488;2023-05-07T09:40:22;1.30;;;1.00;;
74935;SDS011;63501;55.570;37.488;2023-05-07T09:45:21;1.85;;;1.20;;
74935;SDS011;63501;55.570;37.488;2023-05-07T09:47:49;2.17;;;1.08;;
74935;SDS011;63501;55.570;37.488;2023-05-07T09:50:21;1.70;;;0.90;;
74935;SDS011;63501;55.570;37.488;2023-05-07T09:52:54;2.38;;;0.80;;
74935;SDS011;63501;55.570;37.488;2023-05-07T09:55:22;1.42;;;0.80;;
74935;SDS011;63501;55.570;37.488;2023-05-07T09:57:49;1.83;;;0.70;;
74935;SDS011;63501;55.570;37.488;2023-05-07T10:00:17;1.70;;;1.00;;
74935;SDS011;63501;55.570;37.488;2023-05-07T10:02:47;1.10;;;0.90;;
74935;SDS011;63501;55.570;37.488;2023-05-07T10:05:17;1.33;;;0.73;;
74935;SDS011;63501;55.570;37.488;2023-05-07T10:07:44;2.05;;;0.90;;
74935;SDS011;63501;55.570;37.488;2023-05-07T10:10:13;4.18;;;1.48;;
74935;SDS011;63501;55.570;37.488;2023-05-07T10:12:41;6.35;;;1.23;;
74935;SDS011;63501;55.570;37.488;2023-05-07T10:15:09;3.53;;;0.98;;
74935;SDS011;63501;55.570;37.488;2023-05-07T10:17:38;2.70;;;0.80;;
74935;SDS011;63501;55.570;37.488;2023-05-07T10:20:06;3.42;;;0.93;;
74935;SDS011;63501;55.570;37.488;2023-05-07T10:22:37;1.40;;;0.90;;
74935;SDS011;63501;55.570;37.488;2023-05-07T10:25:05;2.50;;;0.80;;
74935;SDS011;63501;55.570;37.488;2023-05-07T10:27:37;1.92;;;1.02;;
74935;SDS011;63501;55.570;37.488;2023-05-07T10:30:07;3.20;;;2.03;;
74935;SDS011;63501;55.570;37.488;2023-05-07T10:32:48;2.08;;;1.10;;
74935;SDS011;63501;55.570;37.488;2023-05-07T10:35:18;1.38;;;0.90;;
74935;SDS011;63501;55.570;37.488;2023-05-07T10:37:46;1.92;;;1.20;;
74935;SDS011;63501;55.570;37.488;2023-05-07T10:40:15;2.08;;;1.10;;
74935;SDS011;63501;55.570;37.488;2023-05-07T10:42:56;1.55;;;1.10;;
74935;SDS011;63501;55.570;37.488;2023-05-07T10:45:25;1.52;;;1.10;;
74935;SDS011;63501;55.570;37.488;2023-05-07T10:50:36;2.53;;;0.88;;
74935;SDS011;63501;55.570;37.488;2023-05-07T10:53:23;2.15;;;1.08;;
74935;SDS011;63501;55.570;37.488;2023-05-07T10:58:53;2.70;;;1.27;;
74935;SDS011;63501;55.570;37.488;2023-05-07T11:04:16;1.42;;;0.75;;
74935;SDS011;63501;55.570;37.488;2023-05-07T11:09:55;1.60;;;0.70;;
74935;SDS011;63501;55.570;37.488;2023-05-07T11:15:34;1.33;;;0.77;;
74935;SDS011;63501;55.570;37.488;2023-05-07T11:18:10;3.00;;;1.00;;
74935;SDS011;63501;55.570;37.488;2023-05-07T11:20:48;4.03;;;1.00;;
74935;SDS011;63501;55.570;37.488;2023-05-07T11:26:42;4.20;;;1.33;;
74935;SDS011;63501;55.570;37.488;2023-05-07T11:29:14;1.15;;;0.90;;
74935;SDS011;63501;55.570;37.488;2023-05-07T11:31:43;2.08;;;0.80;;
74935;SDS011;63501;55.570;37.488;2023-05-07T11:34:14;2.60;;;0.95;;
74935;SDS011;63501;55.570;37.488;2023-05-07T11:36:46;1.67;;;0.85;;
74935;SDS011;63501;55.570;37.488;2023-05-07T11:39:27;3.38;;;1.10;;
74935;SDS011;63501;55.570;37.488;2023-05-07T11:41:56;1.85;;;0.82;;
74935;SDS011;63501;55.570;37.488;2023-05-07T11:44:24;3.13;;;1.10;;
74935;SDS011;63501;55.570;37.488;2023-05-07T11:46:52;1.92;;;0.93;;
74935;SDS011;63501;55.570;37.488;2023-05-07T11:49:19;2.92;;;1.08;;
74935;SDS011;63501;55.570;37.488;2023-05-07T11:51:46;2.13;;;1.05;;
74935;SDS011;63501;55.570;37.488;2023-05-07T11:54:16;2.20;;;1.13;;
74935;SDS011;63501;55.570;37.488;2023-05-07T11:56:44;4.00;;;1.10;;
74935;SDS011;63501;55.570;37.488;2023-05-07T11:59:17;1.42;;;0.90;;
74935;SDS011;63501;55.570;37.488;2023-05-07T12:01:45;1.35;;;0.90;;
74935;SDS011;63501;55.570;37.488;2023-05-07T12:04:16;1.65;;;1.00;;
74935;SDS011;63501;55.570;37.488;2023-05-07T12:06:47;1.98;;;1.20;;
74935;SDS011;63501;55.570;37.488;2023-05-07T12:09:16;2.13;;;1.08;;
74935;SDS011;63501;55.570;37.488;2023-05-07T12:11:45;2.38;;;1.10;;
74935;SDS011;63501;55.570;37.488;2023-05-07T12:14:13;6.47;;;1.92;;
74935;SDS011;63501;55.570;37.488;2023-05-07T12:16:41;4.30;;;1.30;;
74935;SDS011;63501;55.570;37.488;2023-05-07T12:19:08;2.50;;;1.35;;
74935;SDS011;63501;55.570;37.488;2023-05-07T12:21:39;2.58;;;1.30;;
74935;SDS011;63501;55.570;37.488;2023-05-07T12:24:06;2.13;;;0.90;;
74935;SDS011;63501;55.570;37.488;2023-05-07T12:26:37;1.38;;;1.10;;
74935;SDS011;63501;55.570;37.488;2023-05-07T12:29:05;1.88;;;1.00;;
74935;SDS011;63501;55.570;37.488;2023-05-07T12:31:33;1.30;;;0.80;;
74935;SDS011;63501;55.570;37.488;2023-05-07T12:34:00;1.38;;;1.05;;
74935;SDS011;63501;55.570;37.488;2023-05-07T12:36:35;1.85;;;1.10;;
74935;SDS011;63501;55.570;37.488;2023-05-07T12:39:05;1.35;;;0.90;;
74935;SDS011;63501;55.570;37.488;2023-05-07T12:41:35;1.65;;;1.10;;
74935;SDS011;63501;55.570;37.488;2023-05-07T12:44:04;3.00;;;1.00;;
74935;SDS011;63501;55.570;37.488;2023-05-07T12:46:31;1.52;;;0.90;;
74935;SDS011;63501;55.570;37.488;2023-05-07T12:48:58;2.08;;;1.08;;
74935;SDS011;63501;55.570;37.488;2023-05-07T12:51:25;2.47;;;1.10;;
74935;SDS011;63501;55.570;37.488;2023-05-07T12:53:55;4.10;;;1.20;;
74935;SDS011;63501;55.570;37.488;2023-05-07T12:56:24;2.05;;;1.00;;
74935;SDS011;63501;55.570;37.488;2023-05-07T12:58:51;2.35;;;0.90;;
74935;SDS011;63501;55.570;37.488;2023-05-07T13:01:28;2.20;;;1.08;;
74935;SDS011;63501;55.570;37.488;2023-05-07T13:03:56;3.40;;;1.80;;
74935;SDS011;63501;55.570;37.488;2023-05-07T13:06:26;1.90;;;1.10;;
74935;SDS011;63501;55.570;37.488;2023-05-07T13:08:53;2.50;;;1.20;;
74935;SDS011;63501;55.570;37.488;2023-05-07T13:11:20;2.05;;;1.30;;
74935;SDS011;63501;55.570;37.488;2023-05-07T13:13:49;1.88;;;1.10;;
74935;SDS011;63501;55.570;37.488;2023-05-07T13:16:16;1.98;;;1.10;;
74935;SDS011;63501;55.570;37.488;2023-05-07T13:18:43;1.55;;;1.15;;
74935;SDS011;63501;55.570;37.488;2023-05-07T13:21:10;2.15;;;1.30;;
74935;SDS011;63501;55.570;37.488;2023-05-07T13:23:39;2.42;;;1.10;;
74935;SDS011;63501;55.570;37.488;2023-05-07T13:26:06;3.13;;;1.13;;
74935;SDS011;63501;55.570;37.488;2023-05-07T13:28:33;2.65;;;1.25;;
74935;SDS011;63501;55.570;37.488;2023-05-07T13:31:01;2.85;;;1.20;;
74935;SDS011;63501;55.570;37.488;2023-05-07T13:33:28;3.17;;;1.10;;
74935;SDS011;63501;55.570;37.488;2023-05-07T13:35:55;2.25;;;1.38;;
74935;SDS011;63501;55.570;37.488;2023-05-07T13:38:23;2.03;;;1.13;;
74935;SDS011;63501;55.570;37.488;2023-05-07T13:40:50;3.35;;;1.20;;
74935;SDS011;63501;55.570;37.488;2023-05-07T13:43:17;2.45;;;1.02;;
74935;SDS011;63501;55.570;37.488;2023-05-07T13:45:44;4.05;;;1.15;;
74935;SDS011;63501;55.570;37.488;2023-05-07T13:48:12;1.13;;;0.85;;
74935;SDS011;63501;55.570;37.488;2023-05-07T13:50:39;2.80;;;1.70;;
74935;SDS011;63501;55.570;37.488;2023-05-07T13:53:07;4.07;;;1.90;;
74935;SDS011;63501;55.570;37.488;2023-05-07T13:55:34;2.53;;;1.17;;
74935;SDS011;63501;55.570;37.488;2023-05-07T13:58:02;2.05;;;1.42;;
74935;SDS011;63501;55.570;37.488;2023-05-07T14:00:29;6.60;;;2.75;;
74935;SDS011;63501;55.570;37.488;2023-05-07T14:02:56;2.65;;;1.02;;
74935;SDS011;63501;55.570;37.488;2023-05-07T14:05:25;6.07;;;1.50;;
74935;SDS011;63501;55.570;37.488;2023-05-07T14:07:53;1.90;;;1.27;;
74935;SDS011;63501;55.570;37.488;2023-05-07T14:10:20;3.15;;;1.00;;
74935;SDS011;63501;55.570;37.488;2023-05-07T14:12:47;2.85;;;1.63;;
74935;SDS011;63501;55.570;37.488;2023-05-07T14:15:14;2.15;;;1.52;;
74935;SDS011;63501;55.570;37.488;2023-05-07T14:17:42;3.83;;;1.50;;
74935;SDS011;63501;55.570;37.488;2023-05-07T14:20:10;2.85;;;1.20;;
74935;SDS011;63501;55.570;37.488;2023-05-07T14:22:39;1.63;;;1.13;;
74935;SDS011;63501;55.570;37.488;2023-05-07T14:25:07;2.15;;;1.10;;
74935;SDS011;63501;55.570;37.488;2023-05-07T14:27:35;2.92;;;1.20;;
74935;SDS011;63501;55.570;37.488;2023-05-07T14:30:03;4.32;;;1.40;;
74935;SDS011;63501;55.570;37.488;2023-05-07T14:32:32;2.75;;;1.30;;
74935;SDS011;63501;55.570;37.488;2023-05-07T14:34:59;2.17;;;1.10;;
74935;SDS011;63501;55.570;37.488;2023-05-07T14:37:26;1.77;;;1.35;;
74935;SDS011;63501;55.570;37.488;2023-05-07T14:39:54;3.35;;;1.20;;
74935;SDS011;63501;55.570;37.488;2023-05-07T14:42:21;2.08;;;1.17;;
74935;SDS011;63501;55.570;37.488;2023-05-07T14:44:48;1.55;;;1.02;;
74935;SDS011;63501;55.570;37.488;2023-05-07T14:47:16;3.20;;;1.20;;
74935;SDS011;63501;55.570;37.488;2023-05-07T14:49:43;2.75;;;1.55;;
74935;SDS011;63501;55.570;37.488;2023-05-07T14:52:10;2.13;;;1.63;;
74935;SDS011;63501;55.570;37.488;2023-05-07T14:54:37;4.78;;;2.65;;
74935;SDS011;63501;55.570;37.488;2023-05-07T14:57:06;2.95;;;1.60;;
74935;SDS011;63501;55.570;37.488;2023-05-07T14:59:36;3.85;;;1.50;;
74935;SDS011;63501;55.570;37.488;2023-05-07T15:02:04;2.00;;;1.10;;
74935;SDS011;63501;55.570;37.488;2023-05-07T15:04:33;3.13;;;1.70;;
74935;SDS011;63501;55.570;37.488;2023-05-07T15:07:00;2.13;;;0.95;;
74935;SDS011;63501;55.570;37.488;2023-05-07T15:09:27;1.70;;;1.10;;
74935;SDS011;63501;55.570;37.488;2023-05-07T15:11:54;3.35;;;0.98;;
74935;SDS011;63501;55.570;37.488;2023-05-07T15:14:23;2.25;;;1.08;;
74935;SDS011;63501;55.570;37.488;2023-05-07T15:16:50;2.65;;;1.30;;
74935;SDS011;63501;55.570;37.488;2023-05-07T15:19:17;2.22;;;1.25;;
74935;SDS011;63501;55.570;37.488;2023-05-07T15:21:44;3.30;;;1.17;;
74935;SDS011;63501;55.570;37.488;2023-05-07T15:24:11;1.58;;;1.00;;